createdAt,value
2022-10-21T00:02:10.850Z,7.33
2022-10-21T00:04:42.546Z,7.35
2022-10-21T00:07:14.201Z,7.24
2022-10-21T00:09:45.916Z,7.23
2022-10-21T00:12:17.479Z,7.18
2022-10-21T00:14:51.562Z,7.17
2022-10-21T00:17:25.617Z,7.09
2022-10-21T00:19:57.301Z,7.00
2022-10-21T00:22:28.821Z,6.99
2022-10-21T00:25:00.467Z,7.02
2022-10-21T00:27:32.273Z,7.05
2022-10-21T00:30:07.474Z,6.84
2022-10-21T00:32:39.920Z,6.93
2022-10-21T00:35:10.464Z,6.95
2022-10-21T00:37:42.099Z,6.88
2022-10-21T00:40:14.339Z,6.85
2022-10-21T00:42:46.963Z,6.87
2022-10-21T00:45:23.292Z,6.89
2022-10-21T00:48:00.925Z,6.84
2022-10-21T00:50:38.853Z,6.88
2022-10-21T00:53:15.774Z,6.90
2022-10-21T00:55:51.651Z,6.94
2022-10-21T00:58:26.335Z,6.87
2022-10-21T01:00:59.835Z,6.83
2022-10-21T01:03:33.170Z,6.87
2022-10-21T01:06:08.199Z,6.94
2022-10-21T01:08:40.179Z,6.84
2022-10-21T01:11:15.694Z,6.86
2022-10-21T01:13:59.471Z,6.83
2022-10-21T01:16:44.345Z,6.81
2022-10-21T01:19:42.604Z,6.91
2022-10-21T01:22:30.848Z,6.78
2022-10-21T01:25:25.040Z,6.78
2022-10-21T01:28:05.557Z,6.80
2022-10-21T01:30:42.778Z,6.80
2022-10-21T01:33:42.934Z,6.80
2022-10-21T01:36:26.017Z,6.81
2022-10-21T01:39:08.975Z,6.82
2022-10-21T01:41:46.060Z,6.81
2022-10-21T01:44:23.885Z,6.82
2022-10-21T01:47:00.451Z,6.74
2022-10-21T01:49:37.337Z,6.79
2022-10-21T01:52:09.869Z,6.72
2022-10-21T01:54:45.646Z,6.66
2022-10-21T01:57:21.931Z,6.65
2022-10-21T01:59:55.498Z,6.69
2022-10-21T02:02:33.216Z,6.72
2022-10-21T02:05:13.629Z,6.71
2022-10-21T02:07:45.311Z,6.68
2022-10-21T02:10:19.221Z,6.68
2022-10-21T02:12:55.977Z,6.72
2022-10-21T02:15:31.042Z,6.73
2022-10-21T02:18:08.324Z,6.77
2022-10-21T02:20:43.541Z,6.80
2022-10-21T02:23:18.166Z,6.77
2022-10-21T02:25:51.851Z,6.82
2022-10-21T02:28:23.726Z,6.76
2022-10-21T02:31:06.375Z,6.71
2022-10-21T02:33:52.058Z,6.75
2022-10-21T02:36:31.385Z,6.80
2022-10-21T02:39:08.349Z,6.82
2022-10-21T02:41:41.681Z,6.76
2022-10-21T02:44:14.116Z,6.78
2022-10-21T02:46:48.224Z,6.76
2022-10-21T02:49:20.088Z,6.62
2022-10-21T02:51:51.761Z,6.74
2022-10-21T02:54:23.478Z,6.84
2022-10-21T02:56:55.101Z,6.84
2022-10-21T02:59:26.906Z,6.86
2022-10-21T03:01:58.486Z,6.75
2022-10-21T03:04:30.146Z,6.77
2022-10-21T03:07:01.860Z,6.81
2022-10-21T03:09:33.449Z,6.81
2022-10-21T03:12:05.101Z,6.84
2022-10-21T03:14:36.971Z,6.88
2022-10-21T03:17:08.566Z,6.90
2022-10-21T03:19:40.183Z,6.89
2022-10-21T03:22:11.942Z,6.67
2022-10-21T03:24:43.573Z,6.78
2022-10-21T03:27:15.957Z,6.87
2022-10-21T03:29:50.257Z,6.84
2022-10-21T03:32:21.849Z,6.87
2022-10-21T03:34:53.733Z,6.88
2022-10-21T03:37:25.420Z,6.86
2022-10-21T03:39:57.243Z,6.94
2022-10-21T03:42:29.753Z,6.92
2022-10-21T03:45:02.507Z,6.89
2022-10-21T03:47:34.229Z,6.90
2022-10-21T03:50:11.868Z,6.93
2022-10-21T03:52:45.919Z,6.84
2022-10-21T03:55:20.674Z,6.85
2022-10-21T03:57:53.159Z,6.88
2022-10-21T04:00:25.158Z,6.83
2022-10-21T04:02:58.867Z,6.81
2022-10-21T04:05:30.571Z,6.79
2022-10-21T04:08:02.402Z,6.87
2022-10-21T04:10:33.935Z,6.89
2022-10-21T04:13:06.335Z,6.92
2022-10-21T04:15:37.891Z,6.95
2022-10-21T04:18:09.934Z,6.93
2022-10-21T04:20:42.179Z,6.84
2022-10-21T04:23:13.717Z,6.90
2022-10-21T04:25:47.848Z,6.91
2022-10-21T04:28:19.650Z,6.93
2022-10-21T04:30:51.736Z,6.94
2022-10-21T04:33:23.485Z,6.97
2022-10-21T04:35:56.681Z,7.04
2022-10-21T04:38:28.985Z,7.03
2022-10-21T04:41:02.806Z,7.01
2022-10-21T04:43:34.337Z,6.89
2022-10-21T04:46:12.063Z,6.82
2022-10-21T04:48:46.102Z,7.00
2022-10-21T04:51:18.119Z,6.99
2022-10-21T04:53:50.081Z,7.13
2022-10-21T04:56:21.720Z,7.18
2022-10-21T04:58:53.252Z,7.24
2022-10-21T05:01:24.984Z,7.22
2022-10-21T05:03:56.706Z,7.31
2022-10-21T05:06:28.444Z,7.30
2022-10-21T05:09:00.620Z,7.17
2022-10-21T05:11:32.396Z,7.02
2022-10-21T05:14:04.025Z,7.04
2022-10-21T05:16:36.133Z,7.03
2022-10-21T05:19:07.938Z,7.09
2022-10-21T05:21:39.531Z,7.17
2022-10-21T05:24:11.181Z,7.09
2022-10-21T05:26:43.041Z,7.24
2022-10-21T05:29:15.162Z,7.30
2022-10-21T05:31:47.101Z,7.25
2022-10-21T05:34:19.450Z,7.17
2022-10-21T05:36:51.434Z,7.13
2022-10-21T05:39:23.026Z,7.14
2022-10-21T05:41:54.790Z,7.19
2022-10-21T05:44:26.763Z,7.21
2022-10-21T05:46:58.433Z,7.22
2022-10-21T05:49:30.110Z,7.23
2022-10-21T05:52:02.248Z,7.21
2022-10-21T05:54:34.518Z,7.23
2022-10-21T05:57:06.212Z,7.23
2022-10-21T05:59:37.898Z,7.28
2022-10-21T06:02:10.132Z,7.35
2022-10-21T06:04:44.050Z,7.37
2022-10-21T06:07:15.856Z,7.35
2022-10-21T06:09:47.636Z,7.41
2022-10-21T06:12:19.285Z,7.46
2022-10-21T06:14:51.648Z,7.42
2022-10-21T06:17:23.963Z,7.46
2022-10-21T06:19:56.058Z,7.46
2022-10-21T06:22:27.690Z,7.49
2022-10-21T06:24:59.582Z,7.57
2022-10-21T06:27:31.360Z,7.54
2022-10-21T06:30:03.062Z,7.63
2022-10-21T06:32:35.659Z,7.64
2022-10-21T06:35:07.920Z,7.68
2022-10-21T06:37:39.881Z,7.66
2022-10-21T06:40:12.990Z,7.62
2022-10-21T06:42:45.081Z,7.59
2022-10-21T06:45:17.108Z,7.58
2022-10-21T06:47:48.765Z,7.48
2022-10-21T06:50:20.739Z,7.49
2022-10-21T06:52:52.405Z,7.63
2022-10-21T06:55:24.852Z,7.66
2022-10-21T06:57:56.640Z,7.76
2022-10-21T07:03:05.140Z,7.97
2022-10-21T07:05:36.788Z,8.04
2022-10-21T07:08:10.621Z,8.11
2022-10-21T07:10:46.065Z,8.17
2022-10-21T07:13:21.110Z,8.21
2022-10-21T07:16:02.550Z,8.25
2022-10-21T07:18:37.003Z,8.17
2022-10-21T07:21:18.021Z,8.21
2022-10-21T07:23:51.324Z,8.14
2022-10-21T07:26:24.799Z,8.16
2022-10-21T07:28:58.754Z,8.24
2022-10-21T07:31:32.895Z,8.30
2022-10-21T07:34:08.186Z,8.33
2022-10-21T07:36:42.383Z,8.32
2022-10-21T07:39:16.830Z,8.19
2022-10-21T07:41:53.193Z,8.28
2022-10-21T07:44:27.478Z,8.30
2022-10-21T07:46:59.648Z,8.42
2022-10-21T07:49:31.616Z,8.40
2022-10-21T07:52:03.285Z,8.43
2022-10-21T07:54:35.035Z,8.52
2022-10-21T07:57:07.009Z,8.55
2022-10-21T07:59:39.334Z,8.56
2022-10-21T08:02:13.317Z,8.62
2022-10-21T08:04:45.154Z,8.58
2022-10-21T08:07:16.901Z,8.63
2022-10-21T08:09:48.667Z,8.71
2022-10-21T08:12:20.361Z,8.65
2022-10-21T08:14:53.049Z,8.71
2022-10-21T08:17:26.327Z,8.78
2022-10-21T08:19:58.161Z,8.80
2022-10-21T08:22:30.063Z,8.88
2022-10-21T08:25:01.876Z,8.95
2022-10-21T08:27:34.693Z,9.07
2022-10-21T08:30:07.602Z,9.08
2022-10-21T08:32:40.080Z,9.15
2022-10-21T08:35:12.733Z,9.21
2022-10-21T08:37:48.837Z,9.23
2022-10-21T08:40:21.468Z,9.25
2022-10-21T08:42:53.611Z,9.33
2022-10-21T08:45:39.244Z,9.43
2022-10-21T08:48:19.850Z,9.44
2022-10-21T08:50:53.373Z,9.50
2022-10-21T08:53:31.130Z,9.55
2022-10-21T08:56:07.914Z,9.60
2022-10-21T08:58:39.862Z,9.70
2022-10-21T09:01:24.645Z,9.65
2022-10-21T09:04:01.374Z,9.74
2022-10-21T09:06:40.554Z,9.81
2022-10-21T09:09:20.695Z,9.92
2022-10-21T09:12:07.118Z,9.97
2022-10-21T09:14:57.274Z,10.02
2022-10-21T09:17:50.507Z,10.08
2022-10-21T09:20:28.108Z,10.18
2022-10-21T09:23:08.954Z,10.26
2022-10-21T09:25:47.289Z,10.40
2022-10-21T09:28:19.021Z,10.46
2022-10-21T09:30:51.916Z,10.53
2022-10-21T09:33:24.362Z,10.60
2022-10-21T09:36:02.707Z,10.64
2022-10-21T09:38:45.961Z,10.69
2022-10-21T09:43:56.401Z,10.92
2022-10-21T09:46:28.206Z,10.91
2022-10-21T09:49:36.762Z,10.91
2022-10-21T09:51:52.690Z,10.90
2022-10-21T09:54:27.942Z,11.06
2022-10-21T09:57:05.243Z,11.18
2022-10-21T09:59:37.711Z,11.32
2022-10-21T10:02:16.344Z,11.42
2022-10-21T10:04:48.010Z,11.50
2022-10-21T10:07:34.673Z,11.62
2022-10-21T10:10:29.256Z,11.67
2022-10-21T10:13:01.419Z,11.65
2022-10-21T10:15:36.503Z,11.85
2022-10-21T10:18:23.363Z,12.03
2022-10-21T10:21:13.251Z,12.09
2022-10-21T10:23:50.530Z,12.24
2022-10-21T10:26:30.112Z,12.30
2022-10-21T10:29:09.641Z,12.46
2022-10-21T10:31:50.682Z,12.37
2022-10-21T10:34:25.387Z,12.41
2022-10-21T10:37:08.174Z,12.43
2022-10-21T10:39:44.251Z,12.29
2022-10-21T10:42:23.471Z,12.39
2022-10-21T10:44:57.880Z,12.36
2022-10-21T10:47:32.460Z,12.48
2022-10-21T10:50:04.822Z,12.60
2022-10-21T10:52:36.486Z,12.76
2022-10-21T10:55:19.717Z,12.87
2022-10-21T10:58:10.686Z,12.87
2022-10-21T11:00:46.139Z,12.84
2022-10-21T11:03:26.090Z,12.88
2022-10-21T11:06:06.849Z,12.98
2022-10-21T11:08:43.716Z,13.11
2022-10-21T11:11:21.729Z,13.37
2022-10-21T11:13:54.522Z,13.64
2022-10-21T11:16:44.867Z,13.84
2022-10-21T11:19:31.207Z,14.06
2022-10-21T11:22:13.185Z,14.26
2022-10-21T11:24:55.410Z,14.18
2022-10-21T11:27:49.915Z,14.11
2022-10-21T11:30:24.419Z,13.89
2022-10-21T11:33:11.419Z,13.76
2022-10-21T11:35:58.027Z,13.72
2022-10-21T11:38:49.780Z,13.76
2022-10-21T11:41:32.112Z,13.78
2022-10-21T11:44:16.378Z,13.83
2022-10-21T11:46:59.143Z,13.85
2022-10-21T11:49:44.705Z,13.75
2022-10-21T11:52:28.155Z,13.71
2022-10-21T11:55:12.418Z,13.67
2022-10-21T11:57:50.987Z,13.69
2022-10-21T12:00:25.166Z,13.75
2022-10-21T12:03:26.104Z,13.79
2022-10-21T12:06:03.819Z,13.88
2022-10-21T12:08:44.376Z,14.10
2022-10-21T12:11:23.433Z,14.20
2022-10-21T12:13:59.044Z,14.39
2022-10-21T12:16:34.628Z,14.70
2022-10-21T12:19:11.947Z,14.86
2022-10-21T12:21:46.735Z,14.94
2022-10-21T12:24:29.807Z,14.98
2022-10-21T12:27:11.089Z,15.10
2022-10-21T12:29:53.408Z,15.18
2022-10-21T12:32:31.209Z,15.05
2022-10-21T12:35:03.807Z,14.79
2022-10-21T12:38:22.338Z,14.65
2022-10-21T12:41:27.823Z,14.59
2022-10-21T12:44:15.839Z,14.71
2022-10-21T12:46:50.680Z,14.61
2022-10-21T12:49:26.214Z,14.65
2022-10-21T12:52:10.107Z,14.72
2022-10-21T12:54:52.344Z,14.76
2022-10-21T12:57:31.413Z,14.78
2022-10-21T13:00:32.799Z,14.73
2022-10-21T13:03:07.889Z,14.59
2022-10-21T13:06:03.552Z,14.67
2022-10-21T13:08:52.780Z,14.77
2022-10-21T13:11:38.239Z,14.83
2022-10-21T13:14:35.383Z,14.88
2022-10-21T13:17:31.689Z,14.92
2022-10-21T13:20:40.573Z,14.91
2022-10-21T13:23:32.341Z,14.74
2022-10-21T13:26:14.799Z,14.75
2022-10-21T13:29:19.771Z,14.78
2022-10-21T13:32:31.005Z,14.82
2022-10-21T13:35:08.880Z,14.85
2022-10-21T13:37:44.920Z,14.96
2022-10-21T13:40:30.619Z,14.96
2022-10-21T13:43:06.664Z,15.03
2022-10-21T13:45:44.449Z,14.99
2022-10-21T13:48:18.658Z,14.97
2022-10-21T13:50:52.000Z,14.93
2022-10-21T13:53:28.560Z,14.95
2022-10-21T13:56:03.423Z,14.89
2022-10-21T13:58:40.195Z,14.95
2022-10-21T14:01:14.462Z,14.89
2022-10-21T14:03:46.795Z,14.86
2022-10-21T14:06:30.305Z,14.86
2022-10-21T14:09:08.048Z,14.81
2022-10-21T14:11:48.701Z,14.79
2022-10-21T14:14:24.692Z,14.78
2022-10-21T14:17:00.289Z,14.75
2022-10-21T14:19:35.328Z,14.74
2022-10-21T14:22:09.847Z,14.70
2022-10-21T14:24:44.331Z,14.66
2022-10-21T14:27:20.788Z,14.67
2022-10-21T14:29:53.158Z,14.63
2022-10-21T14:32:28.128Z,14.62
2022-10-21T14:35:07.053Z,14.61
2022-10-21T14:37:45.622Z,14.60
2022-10-21T14:40:26.734Z,14.57
2022-10-21T14:42:59.557Z,14.57
2022-10-21T14:45:30.446Z,14.58
2022-10-21T14:48:17.407Z,14.51
2022-10-21T14:50:56.295Z,14.52
2022-10-21T14:53:32.679Z,14.47
2022-10-21T14:56:07.769Z,14.45
2022-10-21T14:58:41.142Z,14.44
2022-10-21T15:01:17.766Z,14.42
2022-10-21T15:03:51.953Z,14.43
2022-10-21T15:06:25.851Z,14.41
2022-10-21T15:09:17.062Z,14.38
2022-10-21T15:11:49.554Z,14.33
2022-10-21T15:14:28.735Z,14.33
2022-10-21T15:17:03.922Z,14.33
2022-10-21T15:19:45.837Z,14.30
2022-10-21T15:22:30.960Z,14.23
2022-10-21T15:25:08.987Z,14.24
2022-10-21T15:27:44.337Z,14.23
2022-10-21T15:30:21.471Z,14.16
2022-10-21T15:32:55.178Z,14.17
2022-10-21T15:35:26.944Z,14.16
2022-10-21T15:37:58.632Z,14.10
2022-10-21T15:40:32.842Z,14.11
2022-10-21T15:43:05.031Z,14.12
2022-10-21T15:45:36.750Z,14.05
2022-10-21T15:48:12.611Z,13.93
2022-10-21T15:50:44.636Z,13.95
2022-10-21T15:53:16.539Z,13.89
2022-10-21T15:55:48.922Z,13.89
2022-10-21T15:58:20.726Z,13.88
2022-10-21T16:00:53.418Z,13.77
2022-10-21T16:03:24.014Z,13.65
2022-10-21T16:05:55.726Z,13.70
2022-10-21T16:08:27.772Z,13.79
2022-10-21T16:10:59.700Z,13.66
2022-10-21T16:13:31.697Z,13.68
2022-10-21T16:16:05.122Z,13.72
2022-10-21T16:18:36.913Z,13.74
2022-10-21T16:21:10.093Z,13.72
2022-10-21T16:23:42.434Z,13.64
2022-10-21T16:26:20.650Z,13.67
2022-10-21T16:28:53.629Z,13.66
2022-10-21T16:31:27.760Z,13.69
2022-10-21T16:33:59.601Z,13.68
2022-10-21T16:36:36.902Z,13.64
2022-10-21T16:39:14.621Z,13.69
2022-10-21T16:41:46.422Z,13.95
2022-10-21T16:44:18.872Z,14.06
2022-10-21T16:46:53.442Z,14.12
2022-10-21T16:49:28.035Z,14.16
2022-10-21T16:52:00.923Z,14.60
2022-10-21T16:54:34.215Z,14.28
2022-10-21T16:57:06.939Z,14.36
2022-10-21T16:59:39.003Z,14.67
2022-10-21T17:02:17.278Z,14.51
2022-10-21T17:04:49.183Z,14.69
2022-10-21T17:07:20.985Z,14.51
2022-10-21T17:09:52.912Z,14.61
2022-10-21T17:12:25.950Z,14.48
2022-10-21T17:14:57.805Z,14.46
2022-10-21T17:17:29.749Z,14.34
2022-10-21T17:20:01.492Z,14.07
2022-10-21T17:22:33.627Z,14.05
2022-10-21T17:25:05.907Z,14.08
2022-10-21T17:27:37.822Z,13.86
2022-10-21T17:30:12.370Z,13.86
2022-10-21T17:32:44.463Z,13.80
2022-10-21T17:35:19.791Z,13.79
2022-10-21T17:37:52.911Z,13.70
2022-10-21T17:40:26.884Z,13.67
2022-10-21T17:42:59.231Z,13.78
2022-10-21T17:45:31.116Z,13.81
2022-10-21T17:48:03.710Z,13.81
2022-10-21T17:50:36.631Z,13.76
2022-10-21T17:53:08.804Z,13.82
2022-10-21T17:55:40.625Z,13.79
2022-10-21T17:58:12.476Z,13.76
2022-10-21T18:00:44.821Z,13.71
2022-10-21T18:03:18.291Z,13.81
2022-10-21T18:05:50.804Z,13.85
2022-10-21T18:08:22.859Z,13.81
2022-10-21T18:10:56.322Z,13.79
2022-10-21T18:13:30.538Z,13.76
2022-10-21T18:16:17.434Z,13.70
2022-10-21T18:18:49.861Z,13.66
2022-10-21T18:21:24.190Z,13.64
2022-10-21T18:23:57.152Z,13.56
2022-10-21T18:26:30.892Z,13.58
2022-10-21T18:29:05.870Z,13.61
2022-10-21T18:31:38.767Z,13.58
2022-10-21T18:34:12.855Z,13.57
2022-10-21T18:36:45.249Z,13.56
2022-10-21T18:39:17.179Z,13.56
2022-10-21T18:41:49.359Z,13.53
2022-10-21T18:44:21.231Z,13.52
2022-10-21T18:46:55.939Z,13.52
2022-10-21T18:49:28.371Z,13.51
2022-10-21T18:52:00.592Z,13.51
2022-10-21T18:54:32.807Z,13.49
2022-10-21T18:57:07.774Z,13.41
2022-10-21T18:59:40.017Z,13.45
2022-10-21T19:02:17.995Z,13.40
2022-10-21T19:04:50.558Z,13.39
2022-10-21T19:07:23.097Z,13.36
2022-10-21T19:09:55.004Z,13.35
2022-10-21T19:12:27.112Z,13.33
2022-10-21T19:14:59.453Z,13.30
2022-10-21T19:17:32.623Z,13.30
2022-10-21T19:20:05.098Z,13.28
2022-10-21T19:22:35.889Z,13.26
2022-10-21T19:25:09.877Z,13.20
2022-10-21T19:27:42.091Z,13.19
2022-10-21T19:30:15.175Z,13.16
2022-10-21T19:32:47.202Z,13.14
2022-10-21T19:35:20.113Z,13.15
2022-10-21T19:37:52.594Z,13.12
2022-10-21T19:40:25.250Z,13.11
2022-10-21T19:42:58.307Z,13.13
2022-10-21T19:45:30.422Z,13.10
2022-10-21T19:48:03.422Z,13.09
2022-10-21T19:50:37.498Z,13.09
2022-10-21T19:53:09.662Z,13.07
2022-10-21T19:55:41.668Z,13.06
2022-10-21T19:58:13.617Z,13.06
2022-10-21T20:00:45.556Z,13.07
2022-10-21T20:03:18.515Z,13.06
2022-10-21T20:05:50.742Z,13.09
2022-10-21T20:08:22.729Z,13.08
2022-10-21T20:11:12.521Z,13.05
2022-10-21T20:13:46.060Z,13.04
2022-10-21T20:16:21.660Z,13.04
2022-10-21T20:18:56.702Z,13.03
2022-10-21T20:21:28.783Z,13.01
2022-10-21T20:24:02.008Z,13.01
2022-10-21T20:26:34.871Z,13.00
2022-10-21T20:29:06.940Z,12.96
2022-10-21T20:31:38.938Z,12.98
2022-10-21T20:34:14.539Z,12.96
2022-10-21T20:36:47.235Z,12.98
2022-10-21T20:39:19.089Z,12.98
2022-10-21T20:41:51.014Z,12.99
2022-10-21T20:44:22.904Z,12.96
2022-10-21T20:46:54.708Z,12.95
2022-10-21T20:49:26.649Z,12.91
2022-10-21T20:51:58.604Z,12.89
2022-10-21T20:54:31.408Z,12.89
2022-10-21T20:57:01.929Z,12.87
2022-10-21T20:59:36.461Z,12.83
2022-10-21T21:02:10.449Z,12.82
2022-10-21T21:04:42.120Z,12.81
2022-10-21T21:07:14.910Z,12.81
2022-10-21T21:10:03.449Z,12.79
2022-10-21T21:12:35.503Z,12.79
2022-10-21T21:15:09.326Z,12.80
2022-10-21T21:17:40.931Z,12.79
2022-10-21T21:20:13.379Z,12.78
2022-10-21T21:22:45.262Z,12.79
2022-10-21T21:25:16.906Z,12.76
2022-10-21T21:27:48.742Z,12.78
2022-10-21T21:30:20.535Z,12.78
2022-10-21T21:32:52.359Z,12.77
2022-10-21T21:35:24.354Z,12.76
2022-10-21T21:37:56.131Z,12.75
2022-10-21T21:40:29.237Z,12.74
2022-10-21T21:43:00.831Z,12.72
2022-10-21T21:45:32.466Z,12.72
2022-10-21T21:48:04.317Z,12.73
2022-10-21T21:50:36.148Z,12.76
2022-10-21T21:53:08.779Z,12.71
2022-10-21T21:55:40.560Z,12.67
2022-10-21T21:58:12.747Z,12.72
2022-10-21T22:00:44.358Z,12.62
2022-10-21T22:03:16.053Z,12.60
2022-10-21T22:05:47.921Z,12.68
2022-10-21T22:08:19.490Z,12.66
2022-10-21T22:10:51.119Z,12.60
2022-10-21T22:13:22.730Z,12.59
2022-10-21T22:15:54.331Z,12.55
2022-10-21T22:18:26.180Z,12.56
2022-10-21T22:21:01.290Z,12.57
2022-10-21T22:23:33.151Z,12.52
2022-10-21T22:26:05.240Z,12.63
2022-10-21T22:28:36.852Z,12.67
2022-10-21T22:31:11.168Z,12.68
2022-10-21T22:36:21.444Z,12.74
2022-10-21T22:38:53.466Z,12.72
2022-10-21T22:41:25.093Z,12.68
2022-10-21T22:43:56.693Z,12.57
2022-10-21T22:46:33.958Z,12.67
2022-10-21T22:49:07.223Z,12.72
2022-10-21T22:51:38.800Z,12.72
2022-10-21T22:54:24.293Z,12.74
2022-10-21T22:57:03.619Z,12.58
2022-10-21T22:59:37.054Z,12.59
2022-10-21T23:02:09.280Z,12.65
2022-10-21T23:04:40.866Z,12.59
2022-10-21T23:07:12.507Z,12.56
2022-10-21T23:09:44.188Z,12.56
2022-10-21T23:12:16.787Z,12.60
2022-10-21T23:14:48.539Z,12.57
2022-10-21T23:17:20.190Z,12.52
2022-10-21T23:19:51.780Z,12.56
2022-10-21T23:22:23.587Z,12.55
2022-10-21T23:24:55.210Z,12.57
2022-10-21T23:27:28.076Z,12.62
2022-10-21T23:29:59.783Z,12.63
2022-10-21T23:32:31.425Z,12.55
2022-10-21T23:35:03.267Z,12.59
2022-10-21T23:37:35.052Z,12.47
2022-10-21T23:40:08.290Z,12.53
2022-10-21T23:42:42.843Z,12.56
2022-10-21T23:45:14.882Z,12.50
2022-10-21T23:47:46.496Z,12.49
2022-10-21T23:50:18.820Z,12.50
2022-10-21T23:52:50.530Z,12.58
2022-10-21T23:55:22.462Z,12.57
2022-10-21T23:57:54.096Z,12.53
